M I D A S
Marine Information and Data Acquisition System
Tripno 1577 of the Zeeleeuw from 2008-09-30 06:24:46 to 2008-09-30 13:58:00
Back to CruiseResearch ActivitiesStationsMapUnderway DataData graphs

EquipmentUnitsComment
TimeDGPSUTC
LatitudeDGPSDM.mWGS84
LongitudeDGPSDM.mWGS84
HeadingGyrodeg 
SOGDGPSknotsSpeed over ground
COGDGPSdegCourse over ground
DepthEcho soundermeters200 kHz
Missing or incorrect values are displayed as -999
Navigation data collected by the RV Zeeleeuw from 2008-09-30 06:24:46 to 2008-09-30 13:58:00
                                                                                    Next 1000 lines
Time Latitude Longitude Heading SOG COG Depth
2008-09-30 06:25:00 51°13.624 2°56.049 124.4   12 -999
2008-09-30 06:25:10 51°13.624 2°56.049 124.4   12 -999
2008-09-30 06:25:20 51°13.624 2°56.049 124.4   12 -999
2008-09-30 06:25:30 51°13.624 2°56.049 124.4   12 -999
2008-09-30 06:25:40 51°13.623 2°56.049 124.4   12 -999
2008-09-30 06:25:50 51°13.623 2°56.049 124.4   12 -999
2008-09-30 06:26:00 51°13.623 2°56.049 119.2   187 -999
2008-09-30 06:26:10 51°13.622 2°56.049 119.2   187 -999
2008-09-30 06:26:20 51°13.622 2°56.049 119.2   187 -999
2008-09-30 06:26:30 51°13.622 2°56.049 119.2   187 -999
2008-09-30 06:26:40 51°13.622 2°56.048 119.2   187 -999
2008-09-30 06:26:50 51°13.623 2°56.045 119.2   187 -999
2008-09-30 06:27:00 51°13.625 2°56.039 110.7 1.69 293 -999
2008-09-30 06:27:10 51°13.628 2°56.03 110.7 1.69 293 -999
2008-09-30 06:27:20 51°13.632 2°56.019 110.7 1.69 293 -999
2008-09-30 06:27:30 51°13.636 2°56.004 110.7 1.69 293 -999
2008-09-30 06:27:40 51°13.64 2°55.991 110.7 1.69 293 -999
2008-09-30 06:27:50 51°13.643 2°55.978 110.7 1.69 293 -999
2008-09-30 06:28:00 51°13.648 2°55.96 114.7 4 296 -999
2008-09-30 06:28:10 51°13.654 2°55.944 114.7 4 296 -999
2008-09-30 06:28:20 51°13.659 2°55.926 114.7 4 296 -999
2008-09-30 06:28:30 51°13.666 2°55.909 114.7 4 296 -999
2008-09-30 06:28:40 51°13.67 2°55.891 114.7 4 296 -999
2008-09-30 06:28:50 51°13.674 2°55.874 114.7 4 296 -999
2008-09-30 06:29:00 51°13.678 2°55.858 108 4 292 -999
2008-09-30 06:29:10 51°13.683 2°55.842 108 4 292 -999
2008-09-30 06:29:20 51°13.686 2°55.829 108 4 292 -999
2008-09-30 06:29:30 51°13.687 2°55.813 108 4 292 -999
2008-09-30 06:29:40 51°13.688 2°55.8 108 4 292 -999
2008-09-30 06:29:50 51°13.688 2°55.787 108 4 292 -999
2008-09-30 06:30:00 51°13.688 2°55.776 85 2.5 270 -999
2008-09-30 06:30:10 51°13.688 2°55.767 85 2.5 270 -999
2008-09-30 06:30:20 51°13.687 2°55.759 85 2.5 270 -999
2008-09-30 06:30:30 51°13.687 2°55.754 85 2.5 270 -999
2008-09-30 06:30:40 51°13.687 2°55.751 85 2.5 270 -999
2008-09-30 06:30:50 51°13.687 2°55.751 85 2.5 270 -999
2008-09-30 06:31:00 51°13.688 2°55.751 59.6 0.29 8 -999
2008-09-30 06:31:10 51°13.69 2°55.752 59.6 0.29 8 -999
2008-09-30 06:31:20 51°13.692 2°55.754 59.6 0.29 8 -999
2008-09-30 06:31:30 51°13.695 2°55.756 59.6 0.29 8 -999
2008-09-30 06:31:40 51°13.699 2°55.758 59.6 0.29 8 -999
2008-09-30 06:31:50 51°13.703 2°55.759 59.6 0.29 8 -999
2008-09-30 06:32:00 51°13.705 2°55.76 7.9 0.69 14 -999
2008-09-30 06:32:10 51°13.705 2°55.76 7.9 0.69 14 -999
2008-09-30 06:32:20 51°13.702 2°55.761 7.9 0.69 14 -999
2008-09-30 06:32:30 51°13.698 2°55.762 7.9 0.69 14 -999
2008-09-30 06:32:40 51°13.696 2°55.763 7.9 0.69 14 -999
2008-09-30 06:32:50 51°13.696 2°55.764 7.9 0.69 14 -999
2008-09-30 06:33:00 51°13.702 2°55.761 348.3 2 344 -999
2008-09-30 06:33:10 51°13.709 2°55.756 348.3 2 344 -999
2008-09-30 06:33:20 51°13.718 2°55.748 348.3 2 344 -999
2008-09-30 06:33:30 51°13.731 2°55.734 348.3 2 344 -999
2008-09-30 06:33:40 51°13.745 2°55.72 348.3 2 344 -999
2008-09-30 06:33:50 51°13.76 2°55.705 348.3 2 344 -999
2008-09-30 06:34:00 51°13.774 2°55.691 328.6 6.9 329 -999
2008-09-30 06:34:10 51°13.791 2°55.675 328.6 6.9 329 -999
2008-09-30 06:34:20 51°13.812 2°55.658 328.6 6.9 329 -999
2008-09-30 06:34:30 51°13.83 2°55.642 328.6 6.9 329 -999
2008-09-30 06:34:40 51°13.848 2°55.628 328.6 6.9 329 -999
2008-09-30 06:34:50 51°13.868 2°55.612 328.6 6.9 329 -999
2008-09-30 06:35:00 51°13.888 2°55.597 334.3 7.5 333 -999
2008-09-30 06:35:10 51°13.91 2°55.578 334.3 7.5 333 -999
2008-09-30 06:35:20 51°13.931 2°55.564 334.3 7.5 333 -999
2008-09-30 06:35:30 51°13.949 2°55.55 334.3 7.5 333 -999
2008-09-30 06:35:40 51°13.972 2°55.533 334.3 7.5 333 -999
2008-09-30 06:35:50 51°13.993 2°55.517 334.3 7.5 333 -999
2008-09-30 06:36:00 51°14.012 2°55.503 334.6 8.3 334 -999
2008-09-30 06:36:10 51°14.033 2°55.488 334.6 8.3 334 -999
2008-09-30 06:36:20 51°14.055 2°55.47 334.6 8.3 334 -999
2008-09-30 06:36:30 51°14.076 2°55.454 334.6 8.3 334 -999
2008-09-30 06:36:40 51°14.097 2°55.437 334.6 8.3 334 -999
2008-09-30 06:36:50 51°14.115 2°55.421 334.6 8.3 334 -999
2008-09-30 06:37:00 51°14.135 2°55.403 332.6 8.4 331 -999
2008-09-30 06:37:10 51°14.157 2°55.381 332.6 8.4 331 -999
2008-09-30 06:37:20 51°14.179 2°55.356 332.6 8.4 331 -999
2008-09-30 06:37:30 51°14.196 2°55.335 332.6 8.4 331 -999
2008-09-30 06:37:40 51°14.215 2°55.311 332.6 8.4 331 -999
2008-09-30 06:37:50 51°14.233 2°55.286 332.6 8.4 331 -999
2008-09-30 06:38:00 51°14.25 2°55.262 318.5 8.9 317 -999
2008-09-30 06:38:10 51°14.269 2°55.231 318.5 8.9 317 -999
2008-09-30 06:38:20 51°14.287 2°55.203 318.5 8.9 317 -999
2008-09-30 06:38:30 51°14.305 2°55.173 318.5 8.9 317 -999
2008-09-30 06:38:40 51°14.322 2°55.143 318.5 8.9 317 -999
2008-09-30 06:38:50 51°14.34 2°55.113 318.5 8.9 317 -999
2008-09-30 06:39:00 51°14.357 2°55.083 312 9.19 311 -999
2008-09-30 06:39:10 51°14.373 2°55.053 312 9.19 311 -999
2008-09-30 06:39:20 51°14.389 2°55.023 312 9.19 311 -999
2008-09-30 06:39:30 51°14.404 2°54.992 312 9.19 311 -999
2008-09-30 06:39:40 51°14.416 2°54.956 312 9.19 311 -999
2008-09-30 06:39:50 51°14.426 2°54.919 312 9.19 311 -999
2008-09-30 06:40:00 51°14.436 2°54.879 295.3 9.69 292 -999
2008-09-30 06:40:10 51°14.446 2°54.838 295.3 9.69 292 -999
2008-09-30 06:40:20 51°14.456 2°54.796 295.3 9.69 292 -999
2008-09-30 06:40:30 51°14.468 2°54.754 295.3 9.69 292 -999
2008-09-30 06:40:40 51°14.479 2°54.711 295.3 9.69 292 -999
2008-09-30 06:40:50 51°14.491 2°54.669 295.3 9.69 292 -999
2008-09-30 06:41:00 51°14.503 2°54.628 297.5 10.4 295 -999
2008-09-30 06:41:10 51°14.516 2°54.587 297.5 10.4 295 -999
2008-09-30 06:41:20 51°14.528 2°54.547 297.5 10.4 295 -999
2008-09-30 06:41:30 51°14.541 2°54.506 297.5 10.4 295 -999
2008-09-30 06:41:40 51°14.554 2°54.464 297.5 10.4 295 -999
2008-09-30 06:41:50 51°14.567 2°54.42 297.5 10.4 295 -999
2008-09-30 06:42:00 51°14.58 2°54.376 299.3 11.19 295 -999
2008-09-30 06:42:10 51°14.596 2°54.329 299.3 11.19 295 -999
2008-09-30 06:42:20 51°14.608 2°54.289 299.3 11.19 295 -999
2008-09-30 06:42:30 51°14.621 2°54.245 299.3 11.19 295 -999
2008-09-30 06:42:40 51°14.633 2°54.201 299.3 11.19 295 -999
2008-09-30 06:42:50 51°14.644 2°54.15 299.3 11.19 295 -999
2008-09-30 06:43:00 51°14.651 2°54.108 290.6 11 284 -999
2008-09-30 06:43:10 51°14.658 2°54.06 290.6 11 284 -999
2008-09-30 06:43:20 51°14.663 2°54.011 290.6 11 284 -999
2008-09-30 06:43:30 51°14.667 2°53.963 290.6 11 284 -999
2008-09-30 06:43:40 51°14.671 2°53.913 290.6 11 284 -999
2008-09-30 06:43:50 51°14.674 2°53.869 290.6 11 284 -999
2008-09-30 06:44:00 51°14.677 2°53.819 279 11.3 276 -999
2008-09-30 06:44:10 51°14.68 2°53.765 279 11.3 276 -999
2008-09-30 06:44:20 51°14.684 2°53.717 279 11.3 276 -999
2008-09-30 06:44:30 51°14.686 2°53.673 279 11.3 276 -999
2008-09-30 06:44:40 51°14.69 2°53.618 279 11.3 276 -999
2008-09-30 06:44:50 51°14.693 2°53.568 279 11.3 276 -999
2008-09-30 06:45:00 51°14.696 2°53.52 279 11 275 -999
2008-09-30 06:45:10 51°14.698 2°53.471 279 11 275 -999
2008-09-30 06:45:20 51°14.701 2°53.423 279 11 275 -999
2008-09-30 06:45:30 51°14.703 2°53.373 279 11 275 -999
2008-09-30 06:45:40 51°14.706 2°53.323 279 11 275 -999
2008-09-30 06:45:50 51°14.708 2°53.274 279 11 275 -999
2008-09-30 06:46:00 51°14.711 2°53.226 277.8 11 275 -999
2008-09-30 06:46:10 51°14.713 2°53.177 277.8 11 275 -999
2008-09-30 06:46:20 51°14.715 2°53.132 277.8 11 275 -999
2008-09-30 06:46:30 51°14.719 2°53.078 277.8 11 275 -999
2008-09-30 06:46:40 51°14.722 2°53.029 277.8 11 275 -999
2008-09-30 06:46:50 51°14.727 2°52.98 277.8 11 275 -999
2008-09-30 06:47:00 51°14.731 2°52.931 280.8 11.19 278 -999
2008-09-30 06:47:10 51°14.734 2°52.887 280.8 11.19 278 -999
2008-09-30 06:47:20 51°14.739 2°52.833 280.8 11.19 278 -999
2008-09-30 06:47:30 51°14.742 2°52.784 280.8 11.19 278 -999
2008-09-30 06:47:40 51°14.744 2°52.735 280.8 11.19 278 -999
2008-09-30 06:47:50 51°14.747 2°52.69 280.8 11.19 278 -999
2008-09-30 06:48:00 51°14.751 2°52.634 279.3 11.4 277 -999
2008-09-30 06:48:10 51°14.754 2°52.584 279.3 11.4 277 -999
2008-09-30 06:48:20 51°14.758 2°52.533 279.3 11.4 277 -999
2008-09-30 06:48:30 51°14.761 2°52.482 279.3 11.4 277 -999
2008-09-30 06:48:40 51°14.764 2°52.434 279.3 11.4 277 -999
2008-09-30 06:48:50 51°14.767 2°52.384 279.3 11.4 277 -999
2008-09-30 06:49:00 51°14.771 2°52.334 279.8 11.4 276 -999
2008-09-30 06:49:10 51°14.774 2°52.284 279.8 11.4 276 -999
2008-09-30 06:49:20 51°14.777 2°52.233 279.8 11.4 276 -999
2008-09-30 06:49:30 51°14.78 2°52.183 279.8 11.4 276 -999
2008-09-30 06:49:40 51°14.784 2°52.138 279.8 11.4 276 -999
2008-09-30 06:49:50 51°14.788 2°52.083 279.8 11.4 276 -999
2008-09-30 06:50:00 51°14.792 2°52.032 281.1 11.4 277 -999
2008-09-30 06:50:10 51°14.796 2°51.983 281.1 11.4 277 -999
2008-09-30 06:50:20 51°14.8 2°51.934 281.1 11.4 277 -999
2008-09-30 06:50:30 51°14.803 2°51.89 281.1 11.4 277 -999
2008-09-30 06:50:40 51°14.807 2°51.835 281.1 11.4 277 -999
2008-09-30 06:50:50 51°14.811 2°51.785 281.1 11.4 277 -999
2008-09-30 06:51:00 51°14.815 2°51.735 280.3 11.3 277 -999
2008-09-30 06:51:10 51°14.819 2°51.689 280.3 11.3 277 -999
2008-09-30 06:51:20 51°14.822 2°51.633 280.3 11.3 277 -999
2008-09-30 06:51:30 51°14.826 2°51.582 280.3 11.3 277 -999
2008-09-30 06:51:40 51°14.83 2°51.531 280.3 11.3 277 -999
2008-09-30 06:51:50 51°14.833 2°51.485 280.3 11.3 277 -999
2008-09-30 06:52:00 51°14.837 2°51.429 281.3 11.3 276 -999
2008-09-30 06:52:10 51°14.84 2°51.379 281.3 11.3 276 -999
2008-09-30 06:52:20 51°14.844 2°51.33 281.3 11.3 276 -999
2008-09-30 06:52:30 51°14.847 2°51.285 281.3 11.3 276 -999
2008-09-30 06:52:40 51°14.85 2°51.235 281.3 11.3 276 -999
2008-09-30 06:52:50 51°14.854 2°51.179 281.3 11.3 276 -999
2008-09-30 06:53:00 51°14.857 2°51.129 280.1 11.4 276 -999
2008-09-30 06:53:10 51°14.861 2°51.078 280.1 11.4 276 -999
2008-09-30 06:53:20 51°14.864 2°51.032 280.1 11.4 276 -999
2008-09-30 06:53:30 51°14.868 2°50.975 280.1 11.4 276 -999
2008-09-30 06:53:40 51°14.871 2°50.925 280.1 11.4 276 -999
2008-09-30 06:53:50 51°14.874 2°50.875 280.1 11.4 276 -999
2008-09-30 06:54:00 51°14.877 2°50.83 280.6 11.3 277 -999
2008-09-30 06:54:10 51°14.881 2°50.775 280.6 11.3 277 -999
2008-09-30 06:54:20 51°14.883 2°50.731 280.6 11.3 277 -999
2008-09-30 06:54:30 51°14.887 2°50.675 280.6 11.3 277 -999
2008-09-30 06:54:40 51°14.891 2°50.625 280.6 11.3 277 -999
2008-09-30 06:54:50 51°14.894 2°50.575 280.6 11.3 277 -999
2008-09-30 06:55:00 51°14.897 2°50.529 280.1 11.69 276 -999
2008-09-30 06:55:10 51°14.9 2°50.477 280.1 11.69 276 -999
2008-09-30 06:55:20 51°14.902 2°50.425 280.1 11.69 276 -999
2008-09-30 06:55:30 51°14.905 2°50.369 280.1 11.69 276 -999
2008-09-30 06:55:40 51°14.908 2°50.318 280.1 11.69 276 -999
2008-09-30 06:55:50 51°14.912 2°50.267 280.1 11.69 276 -999
2008-09-30 06:56:00 51°14.915 2°50.22 281.3 11.69 275 -999
2008-09-30 06:56:10 51°14.919 2°50.169 281.3 11.69 275 -999
2008-09-30 06:56:20 51°14.922 2°50.118 281.3 11.69 275 -999
2008-09-30 06:56:30 51°14.925 2°50.061 281.3 11.69 275 -999
2008-09-30 06:56:40 51°14.928 2°50.011 281.3 11.69 275 -999
2008-09-30 06:56:50 51°14.93 2°49.966 281.3 11.69 275 -999
2008-09-30 06:57:00 51°14.934 2°49.91 280 11.4 276 -999
2008-09-30 06:57:10 51°14.936 2°49.86 280 11.4 276 -999
2008-09-30 06:57:20 51°14.939 2°49.814 280 11.4 276 -999
2008-09-30 06:57:30 51°14.943 2°49.763 280 11.4 276 -999
2008-09-30 06:57:40 51°14.945 2°49.711 280 11.4 276 -999
2008-09-30 06:57:50 51°14.944 2°49.656 280 11.4 276 -999
2008-09-30 06:58:00 51°14.94 2°49.607 271.3 11.19 264 -999
2008-09-30 06:58:10 51°14.937 2°49.563 271.3 11.19 264 -999
2008-09-30 06:58:20 51°14.933 2°49.513 271.3 11.19 264 -999
2008-09-30 06:58:30 51°14.927 2°49.458 271.3 11.19 264 -999
2008-09-30 06:58:40 51°14.923 2°49.412 271.3 11.19 264 -999
2008-09-30 06:58:50 51°14.918 2°49.36 271.3 11.19 264 -999
2008-09-30 06:59:00 51°14.913 2°49.303 266.1 11.9 262 -999
2008-09-30 06:59:10 51°14.908 2°49.251 266.1 11.9 262 -999
2008-09-30 06:59:20 51°14.904 2°49.197 266.1 11.9 262 -999
2008-09-30 06:59:30 51°14.899 2°49.144 266.1 11.9 262 -999
2008-09-30 06:59:40 51°14.895 2°49.096 266.1 11.9 262 -999
2008-09-30 06:59:50 51°14.89 2°49.043 266.1 11.9 262 -999
2008-09-30 07:00:00 51°14.886 2°48.984 266.1 12.19 264 -999
2008-09-30 07:00:10 51°14.882 2°48.932 266.1 12.19 264 -999
2008-09-30 07:00:20 51°14.878 2°48.881 266.1 12.19 264 -999
2008-09-30 07:00:30 51°14.875 2°48.835 266.1 12.19 264 -999
2008-09-30 07:00:40 51°14.869 2°48.782 266.1 12.19 264 -999
2008-09-30 07:00:50 51°14.866 2°48.725 266.1 12.19 264 -999
2008-09-30 07:01:00 51°14.863 2°48.677 265.6 12.09 263 -999
2008-09-30 07:01:10 51°14.859 2°48.625 265.6 12.09 263 -999
2008-09-30 07:01:20 51°14.854 2°48.568 265.6 12.09 263 -999
2008-09-30 07:01:30 51°14.848 2°48.515 265.6 12.09 263 -999
2008-09-30 07:01:40 51°14.845 2°48.468 265.6 12.09 263 -999
2008-09-30 07:01:50 51°14.841 2°48.412 265.6 12.09 263 -999
2008-09-30 07:02:00 51°14.837 2°48.362 266.1 11.59 262 -999
2008-09-30 07:02:10 51°14.832 2°48.31 266.1 11.59 262 -999
2008-09-30 07:02:20 51°14.828 2°48.258 266.1 11.59 262 -999
2008-09-30 07:02:30 51°14.825 2°48.214 266.1 11.59 262 -999
2008-09-30 07:02:40 51°14.822 2°48.163 266.1 11.59 262 -999
2008-09-30 07:02:50 51°14.819 2°48.106 266.1 11.59 262 -999
2008-09-30 07:03:00 51°14.816 2°48.059 267.1 11.8 264 -999
2008-09-30 07:03:10 51°14.813 2°48.007 267.1 11.8 264 -999
2008-09-30 07:03:20 51°14.807 2°47.948 267.1 11.8 264 -999
2008-09-30 07:03:30 51°14.803 2°47.902 267.1 11.8 264 -999
2008-09-30 07:03:40 51°14.8 2°47.849 267.1 11.8 264 -999
2008-09-30 07:03:50 51°14.795 2°47.792 267.1 11.8 264 -999
2008-09-30 07:04:00 51°14.791 2°47.74 267.6 11.9 264 -999
2008-09-30 07:04:10 51°14.788 2°47.687 267.6 11.9 264 -999
2008-09-30 07:04:20 51°14.786 2°47.639 267.6 11.9 264 -999
2008-09-30 07:04:30 51°14.784 2°47.586 267.6 11.9 264 -999
2008-09-30 07:04:40 51°14.78 2°47.527 267.6 11.9 264 -999
2008-09-30 07:04:50 51°14.777 2°47.479 267.6 11.9 264 -999
2008-09-30 07:05:00 51°14.774 2°47.425 267.1 12.19 265 -999
2008-09-30 07:05:10 51°14.771 2°47.372 267.1 12.19 265 -999
2008-09-30 07:05:20 51°14.768 2°47.318 267.1 12.19 265 -999
2008-09-30 07:05:30 51°14.762 2°47.26 267.1 12.19 265 -999
2008-09-30 07:05:40 51°14.759 2°47.212 267.1 12.19 265 -999
2008-09-30 07:05:50 51°14.755 2°47.159 267.1 12.19 265 -999
2008-09-30 07:06:00 51°14.753 2°47.107 267.6 11.5 264 -999
2008-09-30 07:06:10 51°14.748 2°47.057 267.6 11.5 264 -999
2008-09-30 07:06:20 51°14.744 2°47.001 267.6 11.5 264 -999
2008-09-30 07:06:30 51°14.74 2°46.954 267.6 11.5 264 -999
2008-09-30 07:06:40 51°14.737 2°46.902 267.6 11.5 264 -999
2008-09-30 07:06:50 51°14.733 2°46.845 267.6 11.5 264 -999
2008-09-30 07:07:00 51°14.73 2°46.798 266.3 11.8 265 -999
2008-09-30 07:07:10 51°14.727 2°46.746 266.3 11.8 265 -999
2008-09-30 07:07:20 51°14.724 2°46.694 266.3 11.8 265 -999
2008-09-30 07:07:30 51°14.721 2°46.641 266.3 11.8 265 -999
2008-09-30 07:07:40 51°14.718 2°46.583 266.3 11.8 265 -999
2008-09-30 07:07:50 51°14.714 2°46.53 266.3 11.8 265 -999
2008-09-30 07:08:00 51°14.711 2°46.483 267 12 264 -999
2008-09-30 07:08:10 51°14.707 2°46.431 267 12 264 -999
2008-09-30 07:08:20 51°14.703 2°46.379 267 12 264 -999
2008-09-30 07:08:30 51°14.699 2°46.325 267 12 264 -999
2008-09-30 07:08:40 51°14.696 2°46.281 267 12 264 -999
2008-09-30 07:08:50 51°14.693 2°46.232 267 12 264 -999
2008-09-30 07:09:00 51°14.69 2°46.182 268.1 11.3 262 -999
2008-09-30 07:09:10 51°14.686 2°46.132 268.1 11.3 262 -999
2008-09-30 07:09:20 51°14.684 2°46.082 268.1 11.3 262 -999
2008-09-30 07:09:30 51°14.679 2°46.028 268.1 11.3 262 -999
2008-09-30 07:09:40 51°14.677 2°45.983 268.1 11.3 262 -999
2008-09-30 07:09:50 51°14.674 2°45.933 268.1 11.3 262 -999
2008-09-30 07:10:00 51°14.671 2°45.883 267.3 11.3 265 -999
2008-09-30 07:10:10 51°14.668 2°45.833 267.3 11.3 265 -999
2008-09-30 07:10:20 51°14.665 2°45.783 267.3 11.3 265 -999
2008-09-30 07:10:30 51°14.662 2°45.732 267.3 11.3 265 -999
2008-09-30 07:10:40 51°14.659 2°45.681 267.3 11.3 265 -999
2008-09-30 07:10:50 51°14.655 2°45.631 267.3 11.3 265 -999
2008-09-30 07:11:00 51°14.652 2°45.582 267.1 11.19 265 -999
2008-09-30 07:11:10 51°14.65 2°45.532 267.1 11.19 265 -999
2008-09-30 07:11:20 51°14.646 2°45.483 267.1 11.19 265 -999
2008-09-30 07:11:30 51°14.643 2°45.434 267.1 11.19 265 -999
2008-09-30 07:11:40 51°14.638 2°45.377 267.1 11.19 265 -999
2008-09-30 07:11:50 51°14.634 2°45.332 267.1 11.19 265 -999
2008-09-30 07:12:00 51°14.63 2°45.28 265.1 11.8 264 -999
2008-09-30 07:12:10 51°14.626 2°45.229 265.1 11.8 264 -999
2008-09-30 07:12:20 51°14.622 2°45.178 265.1 11.8 264 -999
2008-09-30 07:12:30 51°14.617 2°45.122 265.1 11.8 264 -999
2008-09-30 07:12:40 51°14.613 2°45.076 265.1 11.8 264 -999
2008-09-30 07:12:50 51°14.608 2°45.025 265.1 11.8 264 -999
2008-09-30 07:13:00 51°14.604 2°44.973 265 11.8 262 -999
2008-09-30 07:13:10 51°14.6 2°44.921 265 11.8 262 -999
2008-09-30 07:13:20 51°14.595 2°44.869 265 11.8 262 -999
2008-09-30 07:13:30 51°14.59 2°44.817 265 11.8 262 -999
2008-09-30 07:13:40 51°14.586 2°44.765 265 11.8 262 -999
2008-09-30 07:13:50 51°14.582 2°44.712 265 11.8 262 -999
2008-09-30 07:14:00 51°14.578 2°44.655 266.6 12 264 -999
2008-09-30 07:14:10 51°14.574 2°44.608 266.6 12 264 -999
2008-09-30 07:14:20 51°14.57 2°44.557 266.6 12 264 -999
2008-09-30 07:14:30 51°14.565 2°44.507 266.6 12 264 -999
2008-09-30 07:14:40 51°14.56 2°44.456 266.6 12 264 -999
2008-09-30 07:14:50 51°14.555 2°44.399 266.6 12 264 -999
2008-09-30 07:15:00 51°14.55 2°44.352 264.8 12 259 -999
2008-09-30 07:15:10 51°14.544 2°44.3 264.8 12 259 -999
2008-09-30 07:15:20 51°14.539 2°44.247 264.8 12 259 -999
2008-09-30 07:15:30 51°14.534 2°44.195 264.8 12 259 -999
2008-09-30 07:15:40 51°14.528 2°44.143 264.8 12 259 -999
2008-09-30 07:15:50 51°14.523 2°44.091 264.8 12 259 -999
2008-09-30 07:16:00 51°14.517 2°44.039 265.3 11.8 260 -999
2008-09-30 07:16:10 51°14.511 2°43.988 265.3 11.8 260 -999
2008-09-30 07:16:20 51°14.505 2°43.935 265.3 11.8 260 -999
2008-09-30 07:16:30 51°14.499 2°43.882 265.3 11.8 260 -999
2008-09-30 07:16:40 51°14.494 2°43.83 265.3 11.8 260 -999
2008-09-30 07:16:50 51°14.488 2°43.778 265.3 11.8 260 -999
2008-09-30 07:17:00 51°14.482 2°43.725 264.3 12.19 260 -999
2008-09-30 07:17:10 51°14.477 2°43.671 264.3 12.19 260 -999
2008-09-30 07:17:20 51°14.472 2°43.617 264.3 12.19 260 -999
2008-09-30 07:17:30 51°14.467 2°43.563 264.3 12.19 260 -999
2008-09-30 07:17:40 51°14.463 2°43.509 264.3 12.19 260 -999
2008-09-30 07:17:50 51°14.457 2°43.454 264.3 12.19 260 -999
2008-09-30 07:18:00 51°14.453 2°43.401 265.1 12.19 261 -999
2008-09-30 07:18:10 51°14.447 2°43.348 265.1 12.19 261 -999
2008-09-30 07:18:20 51°14.442 2°43.295 265.1 12.19 261 -999
2008-09-30 07:18:30 51°14.436 2°43.244 265.1 12.19 261 -999
2008-09-30 07:18:40 51°14.43 2°43.193 265.1 12.19 261 -999
2008-09-30 07:18:50 51°14.425 2°43.142 265.1 12.19 261 -999
2008-09-30 07:19:00 51°14.421 2°43.089 265.1 12 262 -999
2008-09-30 07:19:10 51°14.416 2°43.035 265.1 12 262 -999
2008-09-30 07:19:20 51°14.412 2°42.983 265.1 12 262 -999
2008-09-30 07:19:30 51°14.406 2°42.931 265.1 12 262 -999
2008-09-30 07:19:40 51°14.401 2°42.879 265.1 12 262 -999
2008-09-30 07:19:50 51°14.397 2°42.827 265.1 12 262 -999
2008-09-30 07:20:00 51°14.391 2°42.774 265.1 11.9 261 -999
2008-09-30 07:20:10 51°14.385 2°42.723 265.1 11.9 261 -999
2008-09-30 07:20:20 51°14.379 2°42.673 265.1 11.9 261 -999
2008-09-30 07:20:30 51°14.374 2°42.622 265.1 11.9 261 -999
2008-09-30 07:20:40 51°14.369 2°42.571 265.1 11.9 261 -999
2008-09-30 07:20:50 51°14.363 2°42.518 265.1 11.9 261 -999
2008-09-30 07:21:00 51°14.358 2°42.464 265 12.3 262 -999
2008-09-30 07:21:10 51°14.352 2°42.411 265 12.3 262 -999
2008-09-30 07:21:20 51°14.347 2°42.358 265 12.3 262 -999
2008-09-30 07:21:30 51°14.342 2°42.305 265 12.3 262 -999
2008-09-30 07:21:40 51°14.337 2°42.251 265 12.3 262 -999
2008-09-30 07:21:50 51°14.333 2°42.198 265 12.3 262 -999
2008-09-30 07:22:00 51°14.327 2°42.145 265.1 12.09 260 -999
2008-09-30 07:22:10 51°14.322 2°42.092 265.1 12.09 260 -999
2008-09-30 07:22:20 51°14.317 2°42.039 265.1 12.09 260 -999
2008-09-30 07:22:30 51°14.312 2°41.986 265.1 12.09 260 -999
2008-09-30 07:22:40 51°14.306 2°41.933 265.1 12.09 260 -999
2008-09-30 07:22:50 51°14.301 2°41.879 265.1 12.09 260 -999
2008-09-30 07:23:00 51°14.297 2°41.826 265.1 12 262 -999
2008-09-30 07:23:10 51°14.295 2°41.773 265.1 12 262 -999
2008-09-30 07:23:20 51°14.297 2°41.721 265.1 12 262 -999
2008-09-30 07:23:30 51°14.303 2°41.67 265.1 12 262 -999
2008-09-30 07:23:40 51°14.312 2°41.622 265.1 12 262 -999
2008-09-30 07:23:50 51°14.325 2°41.576 265.1 12 262 -999
2008-09-30 07:24:00 51°14.341 2°41.533 301.8 11.09 305 -999
2008-09-30 07:24:10 51°14.36 2°41.495 301.8 11.09 305 -999
2008-09-30 07:24:20 51°14.382 2°41.463 301.8 11.09 305 -999
2008-09-30 07:24:30 51°14.406 2°41.439 301.8 11.09 305 -999
2008-09-30 07:24:40 51°14.431 2°41.42 301.8 11.09 305 -999
2008-09-30 07:24:50 51°14.457 2°41.408 301.8 11.09 305 -999
2008-09-30 07:25:00 51°14.486 2°41.397 351.1 10 350 -999
2008-09-30 07:25:10 51°14.511 2°41.394 351.1 10 350 -999
2008-09-30 07:25:20 51°14.54 2°41.392 351.1 10 350 -999
2008-09-30 07:25:30 51°14.568 2°41.391 351.1 10 350 -999
2008-09-30 07:25:40 51°14.597 2°41.391 351.1 10 350 -999
2008-09-30 07:25:50 51°14.625 2°41.391 351.1 10 350 -999
2008-09-30 07:26:00 51°14.654 2°41.391 3.8 10.4   -999
2008-09-30 07:26:10 51°14.682 2°41.39 3.8 10.4   -999
2008-09-30 07:26:20 51°14.712 2°41.391 3.8 10.4   -999
2008-09-30 07:26:30 51°14.741 2°41.39 3.8 10.4   -999
2008-09-30 07:26:40 51°14.769 2°41.389 3.8 10.4   -999
2008-09-30 07:26:50 51°14.798 2°41.389 3.8 10.4   -999
2008-09-30 07:27:00 51°14.83 2°41.388 2.7 10.59   -999
2008-09-30 07:27:10 51°14.857 2°41.387 2.7 10.59   -999
2008-09-30 07:27:20 51°14.886 2°41.386 2.7 10.59   -999
2008-09-30 07:27:30 51°14.915 2°41.386 2.7 10.59   -999
2008-09-30 07:27:40 51°14.947 2°41.384 2.7 10.59   -999
2008-09-30 07:27:50 51°14.973 2°41.384 2.7 10.59   -999
2008-09-30 07:28:00 51°15.002 2°41.382 0.2 10.5 357 -999
2008-09-30 07:28:10 51°15.031 2°41.379 0.2 10.5 357 -999
2008-09-30 07:28:20 51°15.061 2°41.377 0.2 10.5 357 -999
2008-09-30 07:28:30 51°15.09 2°41.376 0.2 10.5 357 -999
2008-09-30 07:28:40 51°15.121 2°41.373 0.2 10.5 357 -999
2008-09-30 07:28:50 51°15.147 2°41.373 0.2 10.5 357 -999
2008-09-30 07:29:00 51°15.175 2°41.372 0.5 10 357 -999
2008-09-30 07:29:10 51°15.203 2°41.37 0.5 10 357 -999
2008-09-30 07:29:20 51°15.232 2°41.369 0.5 10 357 -999
2008-09-30 07:29:30 51°15.26 2°41.367 0.5 10 357 -999
2008-09-30 07:29:40 51°15.289 2°41.364 0.5 10 357 -999
2008-09-30 07:29:50 51°15.318 2°41.36 0.5 10 357 -999
2008-09-30 07:30:00 51°15.346 2°41.359 358.1 10 2 -999
2008-09-30 07:30:10 51°15.372 2°41.356 358.1 10 2 -999
2008-09-30 07:30:20 51°15.396 2°41.352 358.1 10 2 -999
2008-09-30 07:30:30 51°15.412 2°41.348 358.1 10 2 -999
2008-09-30 07:30:40 51°15.428 2°41.349 358.1 10 2 -999
2008-09-30 07:30:50 51°15.44 2°41.353 358.1 10 2 -999
2008-09-30 07:31:00 51°15.45 2°41.361 19.5 3.6 32 -999
2008-09-30 07:31:10 51°15.457 2°41.371 19.5 3.6 32 -999
2008-09-30 07:31:20 51°15.462 2°41.381 19.5 3.6 32 -999
2008-09-30 07:31:30 51°15.466 2°41.394 19.5 3.6 32 -999
2008-09-30 07:31:40 51°15.468 2°41.408 19.5 3.6 32 -999
2008-09-30 07:31:50 51°15.472 2°41.422 19.5 3.6 32 -999
2008-09-30 07:32:00 51°15.475 2°41.436 61.6 3.39 67 -999
2008-09-30 07:32:10 51°15.478 2°41.45 61.6 3.39 67 -999
2008-09-30 07:32:20 51°15.482 2°41.464 61.6 3.39 67 -999
2008-09-30 07:32:30 51°15.485 2°41.478 61.6 3.39 67 -999
2008-09-30 07:32:40 51°15.49 2°41.491 61.6 3.39 67 -999
2008-09-30 07:32:50 51°15.494 2°41.503 61.6 3.39 67 -999
2008-09-30 07:33:00 51°15.498 2°41.515 48.1 3.29 63 -999
2008-09-30 07:33:10 51°15.501 2°41.53 48.1 3.29 63 -999
2008-09-30 07:33:20 51°15.502 2°41.545 48.1 3.29 63 -999
2008-09-30 07:33:30 51°15.501 2°41.562 48.1 3.29 63 -999
2008-09-30 07:33:40 51°15.498 2°41.58 48.1 3.29 63 -999
2008-09-30 07:33:50 51°15.494 2°41.599 48.1 3.29 63 -999
2008-09-30 07:34:00 51°15.491 2°41.619 94 4.59 101 -999
2008-09-30 07:34:10 51°15.489 2°41.64 94 4.59 101 -999
2008-09-30 07:34:20 51°15.488 2°41.663 94 4.59 101 -999
2008-09-30 07:34:30 51°15.487 2°41.685 94 4.59 101 -999
2008-09-30 07:34:40 51°15.486 2°41.707 94 4.59 101 -999
2008-09-30 07:34:50 51°15.483 2°41.727 94 4.59 101 -999
2008-09-30 07:35:00 51°15.479 2°41.749 92.7 5.09 110 -999
2008-09-30 07:35:10 51°15.473 2°41.769 92.7 5.09 110 -999
2008-09-30 07:35:20 51°15.468 2°41.784 92.7 5.09 110 -999
2008-09-30 07:35:30 51°15.461 2°41.798 92.7 5.09 110 -999
2008-09-30 07:35:40 51°15.455 2°41.808 92.7 5.09 110 -999
2008-09-30 07:35:50 51°15.45 2°41.813 92.7 5.09 110 -999
2008-09-30 07:36:00 51°15.446 2°41.816 128 1.6 159 -999
2008-09-30 07:36:10 51°15.442 2°41.818 128 1.6 159 -999
2008-09-30 07:36:20 51°15.438 2°41.819 128 1.6 159 -999
2008-09-30 07:36:30 51°15.434 2°41.821 128 1.6 159 -999
2008-09-30 07:36:40 51°15.431 2°41.823 128 1.6 159 -999
2008-09-30 07:36:50 51°15.427 2°41.823 128 1.6 159 -999
2008-09-30 07:37:00 51°15.424 2°41.824 152.6 1.39 177 -999
2008-09-30 07:37:10 51°15.42 2°41.826 152.6 1.39 177 -999
2008-09-30 07:37:20 51°15.416 2°41.827 152.6 1.39 177 -999
2008-09-30 07:37:30 51°15.412 2°41.826 152.6 1.39 177 -999
2008-09-30 07:37:40 51°15.409 2°41.829 152.6 1.39 177 -999
2008-09-30 07:37:50 51°15.405 2°41.828 152.6 1.39 177 -999
2008-09-30 07:38:00 51°15.401 2°41.829 173.3 1.3 193 -999
2008-09-30 07:38:10 51°15.398 2°41.83 173.3 1.3 193 -999
2008-09-30 07:38:20 51°15.395 2°41.829 173.3 1.3 193 -999
2008-09-30 07:38:30 51°15.391 2°41.831 173.3 1.3 193 -999
2008-09-30 07:38:40 51°15.389 2°41.831 173.3 1.3 193 -999
2008-09-30 07:38:50 51°15.385 2°41.831 173.3 1.3 193 -999
2008-09-30 07:39:00 51°15.382 2°41.832 179.5 1.1 185 -999
2008-09-30 07:39:10 51°15.379 2°41.833 179.5 1.1 185 -999
2008-09-30 07:39:20 51°15.376 2°41.833 179.5 1.1 185 -999
2008-09-30 07:39:30 51°15.373 2°41.834 179.5 1.1 185 -999
2008-09-30 07:39:40 51°15.37 2°41.835 179.5 1.1 185 -999
2008-09-30 07:39:50 51°15.367 2°41.836 179.5 1.1 185 -999
2008-09-30 07:40:00 51°15.365 2°41.836 180.9 1.1 184 -999
2008-09-30 07:40:10 51°15.363 2°41.838 180.9 1.1 184 -999
2008-09-30 07:40:20 51°15.359 2°41.84 180.9 1.1 184 -999
2008-09-30 07:40:30 51°15.357 2°41.84 180.9 1.1 184 -999
2008-09-30 07:40:40 51°15.354 2°41.841 180.9 1.1 184 -999
2008-09-30 07:40:50 51°15.352 2°41.841 180.9 1.1 184 -999
2008-09-30 07:41:00 51°15.349 2°41.842 176 0.9 175 -999
2008-09-30 07:41:10 51°15.346 2°41.843 176 0.9 175 -999
2008-09-30 07:41:20 51°15.343 2°41.843 176 0.9 175 -999
2008-09-30 07:41:30 51°15.341 2°41.844 176 0.9 175 -999
2008-09-30 07:41:40 51°15.339 2°41.846 176 0.9 175 -999
2008-09-30 07:41:50 51°15.336 2°41.847 176 0.9 175 -999
2008-09-30 07:42:00 51°15.334 2°41.848 170 1 186 -999
2008-09-30 07:42:10 51°15.331 2°41.849 170 1 186 -999
2008-09-30 07:42:20 51°15.328 2°41.849 170 1 186 -999
2008-09-30 07:42:30 51°15.326 2°41.85 170 1 186 -999
2008-09-30 07:42:40 51°15.324 2°41.851 170 1 186 -999
2008-09-30 07:42:50 51°15.321 2°41.852 170 1 186 -999
2008-09-30 07:43:00 51°15.319 2°41.853 167.6 1 178 -999
2008-09-30 07:43:10 51°15.316 2°41.853 167.6 1 178 -999
2008-09-30 07:43:20 51°15.313 2°41.854 167.6 1 178 -999
2008-09-30 07:43:30 51°15.31 2°41.856 167.6 1 178 -999
2008-09-30 07:43:40 51°15.307 2°41.856 167.6 1 178 -999
2008-09-30 07:43:50 51°15.304 2°41.857 167.6 1 178 -999
2008-09-30 07:44:00 51°15.302 2°41.858 168.3 1.1 176 -999
2008-09-30 07:44:10 51°15.299 2°41.86 168.3 1.1 176 -999
2008-09-30 07:44:20 51°15.297 2°41.86 168.3 1.1 176 -999
2008-09-30 07:44:30 51°15.294 2°41.861 168.3 1.1 176 -999
2008-09-30 07:44:40 51°15.291 2°41.863 168.3 1.1 176 -999
2008-09-30 07:44:50 51°15.288 2°41.863 168.3 1.1 176 -999
2008-09-30 07:45:00 51°15.286 2°41.865 170.1 1.1 163 -999
2008-09-30 07:45:10 51°15.283 2°41.866 170.1 1.1 163 -999
2008-09-30 07:45:20 51°15.28 2°41.867 170.1 1.1 163 -999
2008-09-30 07:45:30 51°15.277 2°41.867 170.1 1.1 163 -999
2008-09-30 07:45:40 51°15.274 2°41.868 170.1 1.1 163 -999
2008-09-30 07:45:50 51°15.271 2°41.869 170.1 1.1 163 -999
2008-09-30 07:46:00 51°15.268 2°41.871 173.8 1 173 -999
2008-09-30 07:46:10 51°15.266 2°41.871 173.8 1 173 -999
2008-09-30 07:46:20 51°15.263 2°41.872 173.8 1 173 -999
2008-09-30 07:46:30 51°15.26 2°41.874 173.8 1 173 -999
2008-09-30 07:46:40 51°15.257 2°41.874 173.8 1 173 -999
2008-09-30 07:46:50 51°15.255 2°41.876 173.8 1 173 -999
2008-09-30 07:47:00 51°15.252 2°41.877 173.4 1 163 -999
2008-09-30 07:47:10 51°15.249 2°41.878 173.4 1 163 -999
2008-09-30 07:47:20 51°15.246 2°41.879 173.4 1 163 -999
2008-09-30 07:47:30 51°15.244 2°41.88 173.4 1 163 -999
2008-09-30 07:47:40 51°15.241 2°41.881 173.4 1 163 -999
2008-09-30 07:47:50 51°15.238 2°41.882 173.4 1 163 -999
2008-09-30 07:48:00 51°15.235 2°41.884 169.6 1 154 -999
2008-09-30 07:48:10 51°15.232 2°41.885 169.6 1 154 -999
2008-09-30 07:48:20 51°15.23 2°41.886 169.6 1 154 -999
2008-09-30 07:48:30 51°15.227 2°41.887 169.6 1 154 -999
2008-09-30 07:48:40 51°15.224 2°41.887 169.6 1 154 -999
2008-09-30 07:48:50 51°15.222 2°41.888 169.6 1 154 -999
2008-09-30 07:49:00 51°15.219 2°41.889 170.3 1.1 166 -999
2008-09-30 07:49:10 51°15.216 2°41.89 170.3 1.1 166 -999
2008-09-30 07:49:20 51°15.213 2°41.891 170.3 1.1 166 -999
2008-09-30 07:49:30 51°15.21 2°41.893 170.3 1.1 166 -999
2008-09-30 07:49:40 51°15.207 2°41.894 170.3 1.1 166 -999
2008-09-30 07:49:50 51°15.204 2°41.895 170.3 1.1 166 -999
2008-09-30 07:50:00 51°15.201 2°41.896 169.6 1.1 184 -999
2008-09-30 07:50:10 51°15.199 2°41.897 169.6 1.1 184 -999
2008-09-30 07:50:20 51°15.196 2°41.898 169.6 1.1 184 -999
2008-09-30 07:50:30 51°15.192 2°41.899 169.6 1.1 184 -999
2008-09-30 07:50:40 51°15.19 2°41.901 169.6 1.1 184 -999
2008-09-30 07:50:50 51°15.187 2°41.901 169.6 1.1 184 -999
2008-09-30 07:51:00 51°15.184 2°41.902 170 1.1 170 -999
2008-09-30 07:51:10 51°15.181 2°41.904 170 1.1 170 -999
2008-09-30 07:51:20 51°15.179 2°41.905 170 1.1 170 -999
2008-09-30 07:51:30 51°15.176 2°41.906 170 1.1 170 -999
2008-09-30 07:51:40 51°15.173 2°41.907 170 1.1 170 -999
2008-09-30 07:51:50 51°15.171 2°41.909 170 1.1 170 -999
2008-09-30 07:52:00 51°15.168 2°41.909 169.6 1.1 161 -999
2008-09-30 07:52:10 51°15.165 2°41.911 169.6 1.1 161 -999
2008-09-30 07:52:20 51°15.162 2°41.912 169.6 1.1 161 -999
2008-09-30 07:52:30 51°15.16 2°41.913 169.6 1.1 161 -999
2008-09-30 07:52:40 51°15.157 2°41.914 169.6 1.1 161 -999
2008-09-30 07:52:50 51°15.154 2°41.915 169.6 1.1 161 -999
2008-09-30 07:53:00 51°15.151 2°41.916 167.3 1.1 171 -999
2008-09-30 07:53:10 51°15.148 2°41.917 167.3 1.1 171 -999
2008-09-30 07:53:20 51°15.146 2°41.918 167.3 1.1 171 -999
2008-09-30 07:53:30 51°15.143 2°41.919 167.3 1.1 171 -999
2008-09-30 07:53:40 51°15.14 2°41.92 167.3 1.1 171 -999
2008-09-30 07:53:50 51°15.137 2°41.921 167.3 1.1 171 -999
2008-09-30 07:54:00 51°15.134 2°41.923 167.8 1 149 -999
2008-09-30 07:54:10 51°15.132 2°41.923 167.8 1 149 -999
2008-09-30 07:54:20 51°15.129 2°41.925 167.8 1 149 -999
2008-09-30 07:54:30 51°15.126 2°41.926 167.8 1 149 -999
2008-09-30 07:54:40 51°15.123 2°41.927 167.8 1 149 -999
2008-09-30 07:54:50 51°15.12 2°41.929 167.8 1 149 -999
2008-09-30 07:55:00 51°15.117 2°41.93 165.4 1.1 165 -999
2008-09-30 07:55:10 51°15.114 2°41.931 165.4 1.1 165 -999
2008-09-30 07:55:20 51°15.111 2°41.932 165.4 1.1 165 -999
2008-09-30 07:55:30 51°15.108 2°41.933 165.4 1.1 165 -999
2008-09-30 07:55:40 51°15.105 2°41.934 165.4 1.1 165 -999
2008-09-30 07:55:50 51°15.102 2°41.935 165.4 1.1 165 -999
2008-09-30 07:56:00 51°15.099 2°41.936 170.3 1.1 171 -999
2008-09-30 07:56:10 51°15.096 2°41.936 170.3 1.1 171 -999
2008-09-30 07:56:20 51°15.093 2°41.938 170.3 1.1 171 -999
2008-09-30 07:56:30 51°15.09 2°41.938 170.3 1.1 171 -999
2008-09-30 07:56:40 51°15.087 2°41.939 170.3 1.1 171 -999
2008-09-30 07:56:50 51°15.085 2°41.94 170.3 1.1 171 -999
2008-09-30 07:57:00 51°15.082 2°41.94 174.4 1 158 -999
2008-09-30 07:57:10 51°15.079 2°41.942 174.4 1 158 -999
2008-09-30 07:57:20 51°15.076 2°41.941 174.4 1 158 -999
2008-09-30 07:57:30 51°15.073 2°41.943 174.4 1 158 -999
2008-09-30 07:57:40 51°15.071 2°41.943 174.4 1 158 -999
2008-09-30 07:57:50 51°15.068 2°41.944 174.4 1 158 -999
2008-09-30 07:58:00 51°15.065 2°41.945 171.9 1.1 175 -999
2008-09-30 07:58:10 51°15.063 2°41.946 171.9 1.1 175 -999
2008-09-30 07:58:20 51°15.06 2°41.947 171.9 1.1 175 -999
2008-09-30 07:58:30 51°15.057 2°41.949 171.9 1.1 175 -999
2008-09-30 07:58:40 51°15.055 2°41.949 171.9 1.1 175 -999
2008-09-30 07:58:50 51°15.052 2°41.95 171.9 1.1 175 -999
2008-09-30 07:59:00 51°15.05 2°41.952 168.9 1 155 -999
2008-09-30 07:59:10 51°15.047 2°41.953 168.9 1 155 -999
2008-09-30 07:59:20 51°15.044 2°41.954 168.9 1 155 -999
2008-09-30 07:59:30 51°15.041 2°41.955 168.9 1 155 -999
2008-09-30 07:59:40 51°15.038 2°41.955 168.9 1 155 -999
2008-09-30 07:59:50 51°15.036 2°41.955 168.9 1 155 -999
2008-09-30 08:00:00 51°15.033 2°41.956 170.8 1 169 -999
2008-09-30 08:00:10 51°15.03 2°41.957 170.8 1 169 -999
2008-09-30 08:00:20 51°15.027 2°41.958 170.8 1 169 -999
2008-09-30 08:00:30 51°15.025 2°41.959 170.8 1 169 -999
2008-09-30 08:00:40 51°15.022 2°41.959 170.8 1 169 -999
2008-09-30 08:00:50 51°15.02 2°41.96 170.8 1 169 -999
2008-09-30 08:01:00 51°15.018 2°41.961 170.4 0.9 163 -999
2008-09-30 08:01:10 51°15.015 2°41.962 170.4 0.9 163 -999
2008-09-30 08:01:20 51°15.012 2°41.963 170.4 0.9 163 -999
2008-09-30 08:01:30 51°15.01 2°41.964 170.4 0.9 163 -999
2008-09-30 08:01:40 51°15.007 2°41.964 170.4 0.9 163 -999
2008-09-30 08:01:50 51°15.004 2°41.966 170.4 0.9 163 -999
2008-09-30 08:02:00 51°15.002 2°41.966 169 1.1 177 -999
2008-09-30 08:02:10 51°14.999 2°41.967 169 1.1 177 -999
2008-09-30 08:02:20 51°14.996 2°41.968 169 1.1 177 -999
2008-09-30 08:02:30 51°14.994 2°41.97 169 1.1 177 -999
2008-09-30 08:02:40 51°14.991 2°41.97 169 1.1 177 -999
2008-09-30 08:02:50 51°14.989 2°41.971 169 1.1 177 -999
2008-09-30 08:03:00 51°14.986 2°41.972 170 0.9 177 -999
2008-09-30 08:03:10 51°14.984 2°41.973 170 0.9 177 -999
2008-09-30 08:03:20 51°14.981 2°41.974 170 0.9 177 -999
2008-09-30 08:03:30 51°14.979 2°41.974 170 0.9 177 -999
2008-09-30 08:03:40 51°14.976 2°41.976 170 0.9 177 -999
2008-09-30 08:03:50 51°14.974 2°41.977 170 0.9 177 -999
2008-09-30 08:04:00 51°14.971 2°41.978 169.5 1 166 -999
2008-09-30 08:04:10 51°14.968 2°41.979 169.5 1 166 -999
2008-09-30 08:04:20 51°14.965 2°41.979 169.5 1 166 -999
2008-09-30 08:04:30 51°14.963 2°41.981 169.5 1 166 -999
2008-09-30 08:04:40 51°14.959 2°41.982 169.5 1 166 -999
2008-09-30 08:04:50 51°14.957 2°41.983 169.5 1 166 -999
2008-09-30 08:05:00 51°14.954 2°41.983 172.6 1 175 -999
2008-09-30 08:05:10 51°14.951 2°41.985 172.6 1 175 -999
2008-09-30 08:05:20 51°14.948 2°41.985 172.6 1 175 -999
2008-09-30 08:05:30 51°14.945 2°41.985 172.6 1 175 -999
2008-09-30 08:05:40 51°14.942 2°41.986 172.6 1 175 -999
2008-09-30 08:05:50 51°14.939 2°41.986 172.6 1 175 -999
2008-09-30 08:06:00 51°14.937 2°41.987 173.9 1 168 -999
2008-09-30 08:06:10 51°14.934 2°41.987 173.9 1 168 -999
2008-09-30 08:06:20 51°14.931 2°41.988 173.9 1 168 -999
2008-09-30 08:06:30 51°14.928 2°41.988 173.9 1 168 -999
2008-09-30 08:06:40 51°14.926 2°41.99 173.9 1 168 -999
2008-09-30 08:06:50 51°14.923 2°41.991 173.9 1 168 -999
2008-09-30 08:07:00 51°14.921 2°41.991 172.6 0.9 178 -999
2008-09-30 08:07:10 51°14.918 2°41.992 172.6 0.9 178 -999
2008-09-30 08:07:20 51°14.915 2°41.992 172.6 0.9 178 -999
2008-09-30 08:07:30 51°14.913 2°41.993 172.6 0.9 178 -999
2008-09-30 08:07:40 51°14.91 2°41.993 172.6 0.9 178 -999
2008-09-30 08:07:50 51°14.907 2°41.993 172.6 0.9 178 -999
2008-09-30 08:08:00 51°14.904 2°41.994 172.8 0.9 179 -999
2008-09-30 08:08:10 51°14.902 2°41.994 172.8 0.9 179 -999
2008-09-30 08:08:20 51°14.899 2°41.995 172.8 0.9 179 -999
2008-09-30 08:08:30 51°14.896 2°41.996 172.8 0.9 179 -999
2008-09-30 08:08:40 51°14.893 2°41.996 172.8 0.9 179 -999
2008-09-30 08:08:50 51°14.89 2°41.997 172.8 0.9 179 -999
2008-09-30 08:09:00 51°14.887 2°41.998 174 1.19 165 -999
2008-09-30 08:09:10 51°14.884 2°41.998 174 1.19 165 -999
2008-09-30 08:09:20 51°14.881 2°41.999 174 1.19 165 -999
2008-09-30 08:09:30 51°14.878 2°42 174 1.19 165 -999
2008-09-30 08:09:40 51°14.875 2°42 174 1.19 165 -999
2008-09-30 08:09:50 51°14.873 2°42.001 174 1.19 165 -999
2008-09-30 08:10:00 51°14.87 2°42.002 172.4 1 150 -999
2008-09-30 08:10:10 51°14.867 2°42.002 172.4 1 150 -999
2008-09-30 08:10:20 51°14.864 2°42.003 172.4 1 150 -999
2008-09-30 08:10:30 51°14.861 2°42.004 172.4 1 150 -999
2008-09-30 08:10:40 51°14.858 2°42.004 172.4 1 150 -999
2008-09-30 08:10:50 51°14.855 2°42.005 172.4 1 150 -999
2008-09-30 08:11:00 51°14.852 2°42.005 174.8 1.1 171 -999
2008-09-30 08:11:10 51°14.85 2°42.006 174.8 1.1 171 -999
2008-09-30 08:11:20 51°14.847 2°42.006 174.8 1.1 171 -999
2008-09-30 08:11:30 51°14.844 2°42.007 174.8 1.1 171 -999
2008-09-30 08:11:40 51°14.841 2°42.008 174.8 1.1 171 -999
2008-09-30 08:11:50 51°14.838 2°42.008 174.8 1.1 171 -999
2008-09-30 08:12:00 51°14.836 2°42.007 175 1.1 194 -999
2008-09-30 08:12:10 51°14.833 2°42.009 175 1.1 194 -999
2008-09-30 08:12:20 51°14.83 2°42.008 175 1.1 194 -999
2008-09-30 08:12:30 51°14.827 2°42.009 175 1.1 194 -999
2008-09-30 08:12:40 51°14.824 2°42.009 175 1.1 194 -999
2008-09-30 08:12:50 51°14.821 2°42.01 175 1.1 194 -999
2008-09-30 08:13:00 51°14.818 2°42.01 174 1.19 158 -999
2008-09-30 08:13:10 51°14.814 2°42.01 174 1.19 158 -999
2008-09-30 08:13:20 51°14.811 2°42.011 174 1.19 158 -999
2008-09-30 08:13:30 51°14.808 2°42.011 174 1.19 158 -999
2008-09-30 08:13:40 51°14.805 2°42.012 174 1.19 158 -999
2008-09-30 08:13:50 51°14.803 2°42.012 174 1.19 158 -999
2008-09-30 08:14:00 51°14.8 2°42.013 174.4 1 174 -999
2008-09-30 08:14:10 51°14.797 2°42.013 174.4 1 174 -999
2008-09-30 08:14:20 51°14.794 2°42.013 174.4 1 174 -999
2008-09-30 08:14:30 51°14.792 2°42.014 174.4 1 174 -999
2008-09-30 08:14:40 51°14.788 2°42.015 174.4 1 174 -999
2008-09-30 08:14:50 51°14.786 2°42.016 174.4 1 174 -999
2008-09-30 08:15:00 51°14.783 2°42.017 171 1 175 -999
2008-09-30 08:15:10 51°14.78 2°42.017 171 1 175 -999
2008-09-30 08:15:20 51°14.777 2°42.018 171 1 175 -999
2008-09-30 08:15:30 51°14.774 2°42.019 171 1 175 -999
2008-09-30 08:15:40 51°14.772 2°42.02 171 1 175 -999
2008-09-30 08:15:50 51°14.768 2°42.021 171 1 175 -999
2008-09-30 08:16:00 51°14.766 2°42.021 170 1.1 181 -999
2008-09-30 08:16:10 51°14.763 2°42.022 170 1.1 181 -999
2008-09-30 08:16:20 51°14.76 2°42.022 170 1.1 181 -999
2008-09-30 08:16:30 51°14.757 2°42.023 170 1.1 181 -999
2008-09-30 08:16:40 51°14.754 2°42.023 170 1.1 181 -999
2008-09-30 08:16:50 51°14.751 2°42.023 170 1.1 181 -999
2008-09-30 08:17:00 51°14.749 2°42.023 174.5 1 193 -999
2008-09-30 08:17:10 51°14.746 2°42.024 174.5 1 193 -999
2008-09-30 08:17:20 51°14.744 2°42.024 174.5 1 193 -999
2008-09-30 08:17:30 51°14.741 2°42.025 174.5 1 193 -999
2008-09-30 08:17:40 51°14.739 2°42.026 174.5 1 193 -999
2008-09-30 08:17:50 51°14.737 2°42.026 174.5 1 193 -999
2008-09-30 08:18:00 51°14.735 2°42.028 170.3 0.69 174 -999
2008-09-30 08:18:10 51°14.733 2°42.029 170.3 0.69 174 -999
2008-09-30 08:18:20 51°14.731 2°42.03 170.3 0.69 174 -999
2008-09-30 08:18:30 51°14.728 2°42.03 170.3 0.69 174 -999
2008-09-30 08:18:40 51°14.726 2°42.03 170.3 0.69 174 -999
2008-09-30 08:18:50 51°14.724 2°42.031 170.3 0.69 174 -999
2008-09-30 08:19:00 51°14.722 2°42.032 169.8 0.8 153 -999
2008-09-30 08:19:10 51°14.719 2°42.032 169.8 0.8 153 -999
2008-09-30 08:19:20 51°14.717 2°42.033 169.8 0.8 153 -999
2008-09-30 08:19:30 51°14.714 2°42.033 169.8 0.8 153 -999
2008-09-30 08:19:40 51°14.711 2°42.034 169.8 0.8 153 -999
2008-09-30 08:19:50 51°14.709 2°42.034 169.8 0.8 153 -999
2008-09-30 08:20:00 51°14.706 2°42.035 173 1.1 176 -999
2008-09-30 08:20:10 51°14.703 2°42.036 173 1.1 176 -999
2008-09-30 08:20:20 51°14.701 2°42.036 173 1.1 176 -999
2008-09-30 08:20:30 51°14.698 2°42.037 173 1.1 176 -999
2008-09-30 08:20:40 51°14.695 2°42.038 173 1.1 176 -999
2008-09-30 08:20:50 51°14.692 2°42.039 173 1.1 176 -999
2008-09-30 08:21:00 51°14.689 2°42.039 176.3 0.9 169 -999
2008-09-30 08:21:10 51°14.686 2°42.039 176.3 0.9 169 -999
2008-09-30 08:21:20 51°14.684 2°42.04 176.3 0.9 169 -999
2008-09-30 08:21:30 51°14.681 2°42.04 176.3 0.9 169 -999
2008-09-30 08:21:40 51°14.678 2°42.041 176.3 0.9 169 -999
2008-09-30 08:21:50 51°14.675 2°42.042 176.3 0.9 169 -999
2008-09-30 08:22:00 51°14.672 2°42.042 180 1 156 -999
2008-09-30 08:22:10 51°14.67 2°42.042 180 1 156 -999
2008-09-30 08:22:20 51°14.667 2°42.044 180 1 156 -999
2008-09-30 08:22:30 51°14.664 2°42.044 180 1 156 -999
2008-09-30 08:22:40 51°14.661 2°42.045 180 1 156 -999
2008-09-30 08:22:50 51°14.659 2°42.045 180 1 156 -999
2008-09-30 08:23:00 51°14.656 2°42.046 180.8 0.9 156 -999
2008-09-30 08:23:10 51°14.653 2°42.046 180.8 0.9 156 -999
2008-09-30 08:23:20 51°14.651 2°42.047 180.8 0.9 156 -999
2008-09-30 08:23:30 51°14.648 2°42.047 180.8 0.9 156 -999
2008-09-30 08:23:40 51°14.645 2°42.048 180.8 0.9 156 -999
2008-09-30 08:23:50 51°14.643 2°42.049 180.8 0.9 156 -999
2008-09-30 08:24:00 51°14.64 2°42.05 179.9 0.9 176 -999
2008-09-30 08:24:10 51°14.638 2°42.051 179.9 0.9 176 -999
2008-09-30 08:24:20 51°14.635 2°42.052 179.9 0.9 176 -999
2008-09-30 08:24:30 51°14.633 2°42.052 179.9 0.9 176 -999
2008-09-30 08:24:40 51°14.631 2°42.054 179.9 0.9 176 -999
2008-09-30 08:24:50 51°14.628 2°42.054 179.9 0.9 176 -999
2008-09-30 08:25:00 51°14.626 2°42.056 174.1 0.9 142 -999
2008-09-30 08:25:10 51°14.624 2°42.057 174.1 0.9 142 -999
2008-09-30 08:25:20 51°14.622 2°42.057 174.1 0.9 142 -999
2008-09-30 08:25:30 51°14.619 2°42.058 174.1 0.9 142 -999
2008-09-30 08:25:40 51°14.617 2°42.059 174.1 0.9 142 -999
2008-09-30 08:25:50 51°14.615 2°42.06 174.1 0.9 142 -999
2008-09-30 08:26:00 51°14.613 2°42.061 171.6 0.9 152 -999
2008-09-30 08:26:10 51°14.611 2°42.062 171.6 0.9 152 -999
2008-09-30 08:26:20 51°14.608 2°42.062 171.6 0.9 152 -999
2008-09-30 08:26:30 51°14.606 2°42.063 171.6 0.9 152 -999
2008-09-30 08:26:40 51°14.604 2°42.063 171.6 0.9 152 -999
2008-09-30 08:26:50 51°14.601 2°42.064 171.6 0.9 152 -999
2008-09-30 08:27:00 51°14.599 2°42.065 171.1 0.8 162 -999
2008-09-30 08:27:10 51°14.597 2°42.066 171.1 0.8 162 -999
2008-09-30 08:27:20 51°14.595 2°42.068 171.1 0.8 162 -999
2008-09-30 08:27:30 51°14.592 2°42.068 171.1 0.8 162 -999
2008-09-30 08:27:40 51°14.59 2°42.069 171.1 0.8 162 -999
2008-09-30 08:27:50 51°14.588 2°42.07 171.1 0.8 162 -999
2008-09-30 08:28:00 51°14.586 2°42.071 170.9 1 173 -999
2008-09-30 08:28:10 51°14.583 2°42.072 170.9 1 173 -999
2008-09-30 08:28:20 51°14.581 2°42.072 170.9 1 173 -999
2008-09-30 08:28:30 51°14.579 2°42.073 170.9 1 173 -999
2008-09-30 08:28:40 51°14.577 2°42.074 170.9 1 173 -999
2008-09-30 08:28:50 51°14.575 2°42.074 170.9 1 173 -999
2008-09-30 08:29:00 51°14.573 2°42.076 171 0.8 166 -999
2008-09-30 08:29:10 51°14.571 2°42.076 171 0.8 166 -999
2008-09-30 08:29:20 51°14.569 2°42.077 171 0.8 166 -999
2008-09-30 08:29:30 51°14.566 2°42.077 171 0.8 166 -999
2008-09-30 08:29:40 51°14.565 2°42.079 171 0.8 166 -999
2008-09-30 08:29:50 51°14.562 2°42.079 171 0.8 166 -999
2008-09-30 08:30:00 51°14.56 2°42.079 170.6 0.8 151 -999
2008-09-30 08:30:10 51°14.557 2°42.08 170.6 0.8 151 -999
2008-09-30 08:30:20 51°14.555 2°42.081 170.6 0.8 151 -999
2008-09-30 08:30:30 51°14.552 2°42.081 170.6 0.8 151 -999
2008-09-30 08:30:40 51°14.55 2°42.081 170.6 0.8 151 -999
2008-09-30 08:30:50 51°14.547 2°42.082 170.6 0.8 151 -999
2008-09-30 08:31:00 51°14.545 2°42.083 172.5 0.8 176 -999
2008-09-30 08:31:10 51°14.542 2°42.082 172.5 0.8 176 -999
2008-09-30 08:31:20 51°14.539 2°42.083 172.5 0.8 176 -999
2008-09-30 08:31:30 51°14.537 2°42.083 172.5 0.8 176 -999
2008-09-30 08:31:40 51°14.534 2°42.084 172.5 0.8 176 -999
2008-09-30 08:31:50 51°14.532 2°42.084 172.5 0.8 176 -999
2008-09-30 08:32:00 51°14.529 2°42.083 180.3 1 202 -999
2008-09-30 08:32:10 51°14.526 2°42.084 180.3 1 202 -999
2008-09-30 08:32:20 51°14.524 2°42.083 180.3 1 202 -999
2008-09-30 08:32:30 51°14.521 2°42.084 180.3 1 202 -999
2008-09-30 08:32:40 51°14.518 2°42.083 180.3 1 202 -999
2008-09-30 08:32:50 51°14.516 2°42.083 180.3 1 202 -999
2008-09-30 08:33:00 51°14.514 2°42.083 181.5 0.8 185 -999
2008-09-30 08:33:10 51°14.512 2°42.083 181.5 0.8 185 -999
2008-09-30 08:33:20 51°14.51 2°42.084 181.5 0.8 185 -999
2008-09-30 08:33:30 51°14.508 2°42.084 181.5 0.8 185 -999
2008-09-30 08:33:40 51°14.505 2°42.084 181.5 0.8 185 -999
2008-09-30 08:33:50 51°14.503 2°42.085 181.5 0.8 185 -999
2008-09-30 08:34:00 51°14.501 2°42.086 173.4 0.8 164 -999
2008-09-30 08:34:10 51°14.499 2°42.085 173.4 0.8 164 -999
2008-09-30 08:34:20 51°14.497 2°42.086 173.4 0.8 164 -999
2008-09-30 08:34:30 51°14.494 2°42.086 173.4 0.8 164 -999
2008-09-30 08:34:40 51°14.492 2°42.086 173.4 0.8 164 -999
2008-09-30 08:34:50 51°14.49 2°42.087 173.4 0.8 164 -999
2008-09-30 08:35:00 51°14.488 2°42.087 167.6 0.8 167 -999
2008-09-30 08:35:10 51°14.486 2°42.088 167.6 0.8 167 -999
2008-09-30 08:35:20 51°14.483 2°42.089 167.6 0.8 167 -999
2008-09-30 08:35:30 51°14.481 2°42.088 167.6 0.8 167 -999
2008-09-30 08:35:40 51°14.479 2°42.089 167.6 0.8 167 -999
2008-09-30 08:35:50 51°14.477 2°42.089 167.6 0.8 167 -999
2008-09-30 08:36:00 51°14.475 2°42.089 166.8 0.8 184 -999
2008-09-30 08:36:10 51°14.472 2°42.09 166.8 0.8 184 -999
2008-09-30 08:36:20 51°14.47 2°42.09 166.8 0.8 184 -999
2008-09-30 08:36:30 51°14.467 2°42.09 166.8 0.8 184 -999
2008-09-30 08:36:40 51°14.465 2°42.09 166.8 0.8 184 -999
2008-09-30 08:36:50 51°14.463 2°42.09 166.8 0.8 184 -999
2008-09-30 08:37:00 51°14.461 2°42.09 169.6 0.8 183 -999
2008-09-30 08:37:10 51°14.458 2°42.09 169.6 0.8 183 -999
2008-09-30 08:37:20 51°14.455 2°42.089 169.6 0.8 183 -999
2008-09-30 08:37:30 51°14.453 2°42.09 169.6 0.8 183 -999
2008-09-30 08:37:40 51°14.451 2°42.09 169.6 0.8 183 -999
2008-09-30 08:37:50 51°14.448 2°42.09 169.6 0.8 183 -999
2008-09-30 08:38:00 51°14.445 2°42.09 175 0.9 178 -999
2008-09-30 08:38:10 51°14.443 2°42.09 175 0.9 178 -999
2008-09-30 08:38:20 51°14.441 2°42.09 175 0.9 178 -999
2008-09-30 08:38:30 51°14.438 2°42.09 175 0.9 178 -999
2008-09-30 08:38:40 51°14.436 2°42.091 175 0.9 178 -999
2008-09-30 08:38:50 51°14.434 2°42.091 175 0.9 178 -999
2008-09-30 08:39:00 51°14.431 2°42.09 175.5 0.9 190 -999
2008-09-30 08:39:10 51°14.429 2°42.09 175.5 0.9 190 -999
2008-09-30 08:39:20 51°14.427 2°42.09 175.5 0.9 190 -999
2008-09-30 08:39:30 51°14.424 2°42.09 175.5 0.9 190 -999
2008-09-30 08:39:40 51°14.421 2°42.09 175.5 0.9 190 -999
2008-09-30 08:39:50 51°14.419 2°42.09 175.5 0.9 190 -999
2008-09-30 08:40:00 51°14.417 2°42.09 176 0.9 176 -999
2008-09-30 08:40:10 51°14.415 2°42.091 176 0.9 176 -999
2008-09-30 08:40:20 51°14.413 2°42.09 176 0.9 176 -999
2008-09-30 08:40:30 51°14.41 2°42.092 176 0.9 176 -999
2008-09-30 08:40:40 51°14.408 2°42.091 176 0.9 176 -999
2008-09-30 08:40:50 51°14.406 2°42.092 176 0.9 176 -999
2008-09-30 08:41:00 51°14.404 2°42.091 172.1 0.8 187 -999
2008-09-30 08:41:10 51°14.402 2°42.092 172.1 0.8 187 -999
2008-09-30 08:41:20 51°14.4 2°42.091 172.1 0.8 187 -999
2008-09-30 08:41:30 51°14.398 2°42.092 172.1 0.8 187 -999
2008-09-30 08:41:40 51°14.395 2°42.092 172.1 0.8 187 -999
2008-09-30 08:41:50 51°14.394 2°42.092 172.1 0.8 187 -999
2008-09-30 08:42:00 51°14.391 2°42.092 170.6 0.8 194 -999
2008-09-30 08:42:10 51°14.389 2°42.092 170.6 0.8 194 -999
2008-09-30 08:42:20 51°14.387 2°42.093 170.6 0.8 194 -999
2008-09-30 08:42:30 51°14.386 2°42.093 170.6 0.8 194 -999
2008-09-30 08:42:40 51°14.384 2°42.093 170.6 0.8 194 -999
2008-09-30 08:42:50 51°14.382 2°42.093 170.6 0.8 194 -999
2008-09-30 08:43:00 51°14.38 2°42.093 169.5 0.9 191 -999
2008-09-30 08:43:10 51°14.378 2°42.094 169.5 0.9 191 -999
2008-09-30 08:43:20 51°14.375 2°42.093 169.5 0.9 191 -999
2008-09-30 08:43:30 51°14.373 2°42.093 169.5 0.9 191 -999
2008-09-30 08:43:40 51°14.371 2°42.093 169.5 0.9 191 -999
2008-09-30 08:43:50 51°14.368 2°42.093 169.5 0.9 191 -999
2008-09-30 08:44:00 51°14.366 2°42.093 174.9 0.8 156 -999
2008-09-30 08:44:10 51°14.364 2°42.092 174.9 0.8 156 -999
2008-09-30 08:44:20 51°14.362 2°42.093 174.9 0.8 156 -999
2008-09-30 08:44:30 51°14.36 2°42.092 174.9 0.8 156 -999
2008-09-30 08:44:40 51°14.358 2°42.092 174.9 0.8 156 -999
2008-09-30 08:44:50 51°14.355 2°42.092 174.9 0.8 156 -999
2008-09-30 08:45:00 51°14.353 2°42.092 175.4 0.8 194 -999
2008-09-30 08:45:10 51°14.351 2°42.092 175.4 0.8 194 -999
2008-09-30 08:45:20 51°14.349 2°42.092 175.4 0.8 194 -999
2008-09-30 08:45:30 51°14.347 2°42.091 175.4 0.8 194 -999
2008-09-30 08:45:40 51°14.346 2°42.092 175.4 0.8 194 -999
2008-09-30 08:45:50 51°14.344 2°42.091 175.4 0.8 194 -999
2008-09-30 08:46:00 51°14.342 2°42.092 170.4 0.59 166 -999
2008-09-30 08:46:10 51°14.34 2°42.092 170.4 0.59 166 -999
2008-09-30 08:46:20 51°14.338 2°42.092 170.4 0.59 166 -999
2008-09-30 08:46:30 51°14.337 2°42.091 170.4 0.59 166 -999
2008-09-30 08:46:40 51°14.335 2°42.091 170.4 0.59 166 -999
2008-09-30 08:46:50 51°14.333 2°42.092 170.4 0.59 166 -999
2008-09-30 08:47:00 51°14.331 2°42.091 168.5 0.8 194 -999
2008-09-30 08:47:10 51°14.329 2°42.092 168.5 0.8 194 -999
2008-09-30 08:47:20 51°14.326 2°42.091 168.5 0.8 194 -999
2008-09-30 08:47:30 51°14.324 2°42.09 168.5 0.8 194 -999
2008-09-30 08:47:40 51°14.322 2°42.09 168.5 0.8 194 -999
2008-09-30 08:47:50 51°14.32 2°42.09 168.5 0.8 194 -999
2008-09-30 08:48:00 51°14.318 2°42.09 170.9 0.8 173 -999
2008-09-30 08:48:10 51°14.316 2°42.089 170.9 0.8 173 -999
2008-09-30 08:48:20 51°14.313 2°42.089 170.9 0.8 173 -999
2008-09-30 08:48:30 51°14.311 2°42.089 170.9 0.8 173 -999
2008-09-30 08:48:40 51°14.309 2°42.088 170.9 0.8 173 -999
2008-09-30 08:48:50 51°14.307 2°42.088 170.9 0.8 173 -999
2008-09-30 08:49:00 51°14.305 2°42.087 171.3 0.8 183 -999
2008-09-30 08:49:10 51°14.303 2°42.087 171.3 0.8 183 -999
2008-09-30 08:49:20 51°14.301 2°42.087 171.3 0.8 183 -999
2008-09-30 08:49:30 51°14.298 2°42.087 171.3 0.8 183 -999
2008-09-30 08:49:40 51°14.296 2°42.087 171.3 0.8 183 -999
2008-09-30 08:49:50 51°14.294 2°42.086 171.3 0.8 183 -999
2008-09-30 08:50:00 51°14.291 2°42.087 174.8 0.8 163 -999
2008-09-30 08:50:10 51°14.289 2°42.086 174.8 0.8 163 -999
2008-09-30 08:50:20 51°14.286 2°42.086 174.8 0.8 163 -999
2008-09-30 08:50:30 51°14.284 2°42.086 174.8 0.8 163 -999
2008-09-30 08:50:40 51°14.281 2°42.086 174.8 0.8 163 -999
2008-09-30 08:50:50 51°14.279 2°42.086 174.8 0.8 163 -999
2008-09-30 08:51:00 51°14.276 2°42.086 174 0.9 174 -999
2008-09-30 08:51:10 51°14.274 2°42.084 174 0.9 174 -999
2008-09-30 08:51:20 51°14.271 2°42.084 174 0.9 174 -999
2008-09-30 08:51:30 51°14.268 2°42.084 174 0.9 174 -999
2008-09-30 08:51:40 51°14.266 2°42.083 174 0.9 174 -999
2008-09-30 08:51:50 51°14.263 2°42.084 174 0.9 174 -999
2008-09-30 08:52:00 51°14.261 2°42.084 174.8 0.9 177 -999
2008-09-30 08:52:10 51°14.258 2°42.083 174.8 0.9 177 -999
2008-09-30 08:52:20 51°14.255 2°42.083 174.8 0.9 177 -999
2008-09-30 08:52:30 51°14.253 2°42.083 174.8 0.9 177 -999
2008-09-30 08:52:40 51°14.25 2°42.082 174.8 0.9 177 -999
2008-09-30 08:52:50 51°14.247 2°42.081 174.8 0.9 177 -999
2008-09-30 08:53:00 51°14.245 2°42.082 176 0.9 172 -999
2008-09-30 08:53:10 51°14.242 2°42.081 176 0.9 172 -999
2008-09-30 08:53:20 51°14.24 2°42.081 176 0.9 172 -999
2008-09-30 08:53:30 51°14.237 2°42.08 176 0.9 172 -999
2008-09-30 08:53:40 51°14.235 2°42.08 176 0.9 172 -999
2008-09-30 08:53:50 51°14.233 2°42.079 176 0.9 172 -999
2008-09-30 08:54:00 51°14.23 2°42.078 174 0.9 192 -999
2008-09-30 08:54:10 51°14.228 2°42.079 174 0.9 192 -999
2008-09-30 08:54:20 51°14.226 2°42.078 174 0.9 192 -999
2008-09-30 08:54:30 51°14.223 2°42.078 174 0.9 192 -999
2008-09-30 08:54:40 51°14.221 2°42.078 174 0.9 192 -999
2008-09-30 08:54:50 51°14.219 2°42.078 174 0.9 192 -999
2008-09-30 08:55:00 51°14.216 2°42.078 173 0.8 185 -999
2008-09-30 08:55:10 51°14.214 2°42.078 173 0.8 185 -999
2008-09-30 08:55:20 51°14.212 2°42.078 173 0.8 185 -999
2008-09-30 08:55:30 51°14.21 2°42.078 173 0.8 185 -999
2008-09-30 08:55:40 51°14.208 2°42.078 173 0.8 185 -999
2008-09-30 08:55:50 51°14.206 2°42.079 173 0.8 185 -999
2008-09-30 08:56:00 51°14.204 2°42.079 168.3 0.8 187 -999
2008-09-30 08:56:10 51°14.202 2°42.08 168.3 0.8 187 -999
2008-09-30 08:56:20 51°14.199 2°42.08 168.3 0.8 187 -999
2008-09-30 08:56:30 51°14.197 2°42.081 168.3 0.8 187 -999
2008-09-30 08:56:40 51°14.195 2°42.081 168.3 0.8 187 -999
2008-09-30 08:56:50 51°14.192 2°42.081 168.3 0.8 187 -999
2008-09-30 08:57:00 51°14.19 2°42.082 167.5 0.8 160 -999
2008-09-30 08:57:10 51°14.187 2°42.082 167.5 0.8 160 -999
2008-09-30 08:57:20 51°14.185 2°42.083 167.5 0.8 160 -999
2008-09-30 08:57:30 51°14.183 2°42.082 167.5 0.8 160 -999
2008-09-30 08:57:40 51°14.181 2°42.082 167.5 0.8 160 -999
2008-09-30 08:57:50 51°14.178 2°42.083 167.5 0.8 160 -999
2008-09-30 08:58:00 51°14.176 2°42.082 168.4 1 184 -999
2008-09-30 08:58:10 51°14.174 2°42.082 168.4 1 184 -999
2008-09-30 08:58:20 51°14.171 2°42.082 168.4 1 184 -999
2008-09-30 08:58:30 51°14.168 2°42.082 168.4 1 184 -999
2008-09-30 08:58:40 51°14.165 2°42.083 168.4 1 184 -999
2008-09-30 08:58:50 51°14.162 2°42.083 168.4 1 184 -999
2008-09-30 08:59:00 51°14.16 2°42.083 171.6 0.9 177 -999
2008-09-30 08:59:10 51°14.157 2°42.083 171.6 0.9 177 -999
2008-09-30 08:59:20 51°14.154 2°42.084 171.6 0.9 177 -999
2008-09-30 08:59:30 51°14.152 2°42.084 171.6 0.9 177 -999
2008-09-30 08:59:40 51°14.149 2°42.084 171.6 0.9 177 -999
2008-09-30 08:59:50 51°14.146 2°42.084 171.6 0.9 177 -999
2008-09-30 09:00:00 51°14.144 2°42.084 172.3 1 183 -999
2008-09-30 09:00:10 51°14.141 2°42.085 172.3 1 183 -999
2008-09-30 09:00:20 51°14.138 2°42.084 172.3 1 183 -999
2008-09-30 09:00:30 51°14.136 2°42.084 172.3 1 183 -999
2008-09-30 09:00:40 51°14.133 2°42.084 172.3 1 183 -999
2008-09-30 09:00:50 51°14.13 2°42.084 172.3 1 183 -999
2008-09-30 09:01:00 51°14.128 2°42.084 174.3 1 184 -999
2008-09-30 09:01:10 51°14.125 2°42.084 174.3 1 184 -999
2008-09-30 09:01:20 51°14.123 2°42.084 174.3 1 184 -999
2008-09-30 09:01:30 51°14.12 2°42.085 174.3 1 184 -999
2008-09-30 09:01:40 51°14.117 2°42.085 174.3 1 184 -999
2008-09-30 09:01:50 51°14.115 2°42.084 174.3 1 184 -999
2008-09-30 09:02:00 51°14.113 2°42.085 171.5 0.8 170 -999
2008-09-30 09:02:10 51°14.11 2°42.085 171.5 0.8 170 -999
2008-09-30 09:02:20 51°14.108 2°42.085 171.5 0.8 170 -999
2008-09-30 09:02:30 51°14.106 2°42.085 171.5 0.8 170 -999
2008-09-30 09:02:40 51°14.103 2°42.086 171.5 0.8 170 -999
2008-09-30 09:02:50 51°14.101 2°42.085 171.5 0.8 170 -999
2008-09-30 09:03:00 51°14.099 2°42.086 170.1 0.9 184 -999
2008-09-30 09:03:10 51°14.097 2°42.086 170.1 0.9 184 -999
2008-09-30 09:03:20 51°14.094 2°42.086 170.1 0.9 184 -999
2008-09-30 09:03:30 51°14.091 2°42.087 170.1 0.9 184 -999
2008-09-30 09:03:40 51°14.089 2°42.087 170.1 0.9 184 -999
2008-09-30 09:03:50 51°14.086 2°42.088 170.1 0.9 184 -999
2008-09-30 09:04:00 51°14.084 2°42.089 171.3 1 175 -999
2008-09-30 09:04:10 51°14.081 2°42.09 171.3 1 175 -999
2008-09-30 09:04:20 51°14.079 2°42.09 171.3 1 175 -999
2008-09-30 09:04:30 51°14.076 2°42.091 171.3 1 175 -999
2008-09-30 09:04:40 51°14.073 2°42.09 171.3 1 175 -999
2008-09-30 09:04:50 51°14.071 2°42.091 171.3 1 175 -999
2008-09-30 09:05:00 51°14.069 2°42.091 172.5 0.8 166 -999
2008-09-30 09:05:10 51°14.067 2°42.092 172.5 0.8 166 -999
2008-09-30 09:05:20 51°14.064 2°42.093 172.5 0.8 166 -999
2008-09-30 09:05:30 51°14.062 2°42.093 172.5 0.8 166 -999
2008-09-30 09:05:40 51°14.06 2°42.093 172.5 0.8 166 -999
2008-09-30 09:05:50 51°14.058 2°42.093 172.5 0.8 166 -999
2008-09-30 09:06:00 51°14.055 2°42.093 171.4 0.8 174 -999
2008-09-30 09:06:10 51°14.054 2°42.095 171.4 0.8 174 -999
2008-09-30 09:06:20 51°14.051 2°42.095 171.4 0.8 174 -999
2008-09-30 09:06:30 51°14.049 2°42.095 171.4 0.8 174 -999
2008-09-30 09:06:40 51°14.047 2°42.096 171.4 0.8 174 -999
2008-09-30 09:06:50 51°14.045 2°42.096 171.4 0.8 174 -999
2008-09-30 09:07:00 51°14.043 2°42.097 168.1 0.8 163 -999
2008-09-30 09:07:10 51°14.04 2°42.097 168.1 0.8 163 -999
2008-09-30 09:07:20 51°14.038 2°42.098 168.1 0.8 163 -999
2008-09-30 09:07:30 51°14.036 2°42.098 168.1 0.8 163 -999
2008-09-30 09:07:40 51°14.034 2°42.098 168.1 0.8 163 -999
2008-09-30 09:07:50 51°14.032 2°42.099 168.1 0.8 163 -999
2008-09-30 09:08:00 51°14.029 2°42.099 167.5 0.9 178 -999
2008-09-30 09:08:10 51°14.027 2°42.1 167.5 0.9 178 -999
2008-09-30 09:08:20 51°14.025 2°42.099 167.5 0.9 178 -999
2008-09-30 09:08:30 51°14.022 2°42.1 167.5 0.9 178 -999
2008-09-30 09:08:40 51°14.02 2°42.1 167.5 0.9 178 -999
2008-09-30 09:08:50 51°14.018 2°42.101 167.5 0.9 178 -999
2008-09-30 09:09:00 51°14.016 2°42.101 169.5 0.8 180 -999
2008-09-30 09:09:10 51°14.014 2°42.102 169.5 0.8 180 -999
2008-09-30 09:09:20 51°14.011 2°42.102 169.5 0.8 180 -999
2008-09-30 09:09:30 51°14.01 2°42.102 169.5 0.8 180 -999
2008-09-30 09:09:40 51°14.007 2°42.103 169.5 0.8 180 -999
2008-09-30 09:09:50 51°14.004 2°42.103 169.5 0.8 180 -999
2008-09-30 09:10:00 51°14.002 2°42.104 168.9 0.9 175 -999
2008-09-30 09:10:10 51°14 2°42.104 168.9 0.9 175 -999
2008-09-30 09:10:20 51°13.997 2°42.104 168.9 0.9 175 -999
2008-09-30 09:10:30 51°13.994 2°42.104 168.9 0.9 175 -999
2008-09-30 09:10:40 51°13.992 2°42.104 168.9 0.9 175 -999
2008-09-30 09:10:50 51°13.989 2°42.105 168.9 0.9 175 -999
2008-09-30 09:11:00 51°13.987 2°42.105 168.5 1 175 -999
2008-09-30 09:11:10 51°13.984 2°42.105 168.5 1 175 -999
2008-09-30 09:11:20 51°13.981 2°42.105 168.5 1 175 -999